Terminal Aerodrome Forecast
Issued by NWS

Home | Current Version | Previous Version | Text Only | Print | Product List | Glossary On
Versions: 1 2 3 4 5 6 7 8 9 10 11 12 13 14 15 16 17 18
000
FTUS45 KTFX 020531
TAFHLN
TAF
KHLN 020531Z 0206/0306 33006KT P6SM SKC
     FM021500 04006KT P6SM SCT090 SCT200
     FM030200 VRB06KT P6SM SCT200=

USA.gov is the U.S. government's official web portal to all federal, state and local government web resources and services.